CDT,Max TemperatureF,Mean TemperatureF,Min TemperatureF,Max Dew PointF,MeanDew PointF,Min DewpointF,Max Humidity, Mean Humidity, Min Humidity, Max Sea Level PressureIn, Mean Sea Level PressureIn, Min Sea Level PressureIn, Max VisibilityMiles, Mean VisibilityMiles, Min VisibilityMiles, Max Wind SpeedMPH, Mean Wind SpeedMPH, Max Gust SpeedMPH,PrecipitationIn, CloudCover, Events, WindDirDegrees
2013-9-1,89,78,64,71,66,59,91,72,46,29.97,29.85,29.73,10,10,6,17,6,29,0.21,1,Rain-Thunderstorm,32
2013-9-2,82,71,60,61,59,56,93,69,42,30.07,30.01,29.96,10,10,10,9,5,,0.00,0,,360
2013-9-3,87,70,54,61,55,52,93,65,32,30.10,30.05,30.01,10,10,10,8,2,,0.00,0,,120
2013-9-4,89,72,55,62,57,52,89,64,32,30.17,30.10,30.05,10,10,10,9,2,,0.00,0,,132
2013-9-5,91,76,62,62,59,57,84,61,33,30.19,30.12,30.09,10,10,10,8,3,,0.00,0,,121
2013-9-6,93,78,66,66,63,60,81,61,39,30.11,30.04,29.95,10,10,10,14,6,18,0.00,0,,156
2013-9-7,99,84,70,68,65,63,78,57,33,29.97,29.92,29.86,10,10,10,13,8,22,0.00,0,,184
2013-9-8,102,86,71,67,65,61,81,53,26,29.88,29.85,29.80,10,10,10,14,8,18,0.00,0,,194
2013-9-9,97,84,72,64,61,55,71,50,27,29.91,29.87,29.84,10,10,10,21,10,29,0.00,0,,196
2013-9-10,96,83,70,64,62,60,73,52,31,30.04,29.98,29.91,10,10,10,20,10,26,0.00,0,,188
2013-9-11,96,82,68,68,62,58,78,56,31,30.11,30.06,30.00,10,10,10,21,6,25,0.00,2,,202
2013-9-12,86,77,66,70,63,51,93,69,43,30.19,30.12,30.05,10,10,9,17,7,,0.03,4,Rain,360
2013-9-13,77,66,55,50,47,45,77,52,33,30.19,30.12,30.06,10,10,10,9,4,16,0.00,0,,51
2013-9-14,81,66,50,52,49,46,86,57,33,30.09,30.01,29.93,10,10,10,13,6,22,0.00,0,,146
2013-9-15,89,74,62,66,59,51,94,69,43,30.16,30.01,29.90,10,9,3,18,9,24,0.30,4,Rain,47
2013-9-16,62,61,60,61,58,57,94,91,87,30.25,30.19,30.14,10,5,1,14,9,21,0.79,8,Rain,72
2013-9-17,77,68,60,67,62,59,100,90,69,30.18,30.09,29.93,10,5,2,17,7,22,0.62,6,Rain-Thunderstorm,139
2013-9-18,91,78,66,67,66,65,93,68,45,29.95,29.85,29.76,10,9,4,22,11,33,0.00,0,,176
2013-9-19,93,80,68,70,66,64,94,74,39,29.97,29.85,29.71,10,9,2,26,12,36,0.16,4,Rain-Thunderstorm,241
2013-9-20,73,63,53,61,49,44,84,62,35,30.08,30.01,29.93,10,10,10,15,9,25,0.00,0,,346
2013-9-21,78,62,48,53,49,45,89,66,38,30.05,29.98,29.90,10,10,10,7,2,,0.00,0,,138
2013-9-22,79,64,51,52,50,46,89,64,35,29.97,29.90,29.84,10,10,10,15,7,22,0.00,0,,143
2013-9-23,79,66,52,54,50,47,86,61,34,29.89,29.81,29.73,10,10,10,22,10,30,0.00,0,,145
2013-9-24,71,64,57,59,55,52,87,71,60,29.87,29.81,29.73,10,10,10,17,9,22,0.00,6,,277
2013-9-25,81,66,53,61,57,51,96,75,47,29.91,29.85,29.78,10,9,4,12,5,20,0.00,0,,85
2013-9-26,90,74,60,59,58,55,87,62,31,29.87,29.82,29.77,10,10,10,23,11,31,0.00,0,,144
2013-9-27,88,77,66,60,58,55,76,55,33,29.92,29.86,29.80,10,10,10,23,14,29,0.00,0,,152
2013-9-28,75,62,50,65,55,46,90,76,42,30.10,29.92,29.75,10,9,3,21,12,31,0.21,5,Rain,274
2013-9-29,75,58,42,52,45,40,93,69,34,30.12,30.04,29.94,10,9,2,9,2,,0.01,0,,139
2013-9-30,80,62,44,54,47,41,96,68,32,29.94,29.87,29.81,10,10,3,14,4,17,0.00,0,,163